sensor_id;sensor_type;location;lat;lon;timestamp;P1;durP1;ratioP1;P2;durP2;ratioP2
50355;SDS011;36264;51.296;-0.602;2022-12-10T00:01:43;20.77;;;9.20;;
50355;SDS011;36264;51.296;-0.602;2022-12-10T00:04:10;23.25;;;10.93;;
50355;SDS011;36264;51.296;-0.602;2022-12-10T00:06:37;21.33;;;10.30;;
50355;SDS011;36264;51.296;-0.602;2022-12-10T00:09:04;25.80;;;10.90;;
50355;SDS011;36264;51.296;-0.602;2022-12-10T00:11:32;18.07;;;9.03;;
50355;SDS011;36264;51.296;-0.602;2022-12-10T00:13:58;16.27;;;9.27;;
50355;SDS011;36264;51.296;-0.602;2022-12-10T00:16:24;21.52;;;9.02;;
50355;SDS011;36264;51.296;-0.602;2022-12-10T00:18:51;23.73;;;10.47;;
50355;SDS011;36264;51.296;-0.602;2022-12-10T00:21:19;19.07;;;9.83;;
50355;SDS011;36264;51.296;-0.602;2022-12-10T00:23:46;20.63;;;10.60;;
50355;SDS011;36264;51.296;-0.602;2022-12-10T00:26:13;20.00;;;9.37;;
50355;SDS011;36264;51.296;-0.602;2022-12-10T00:28:40;17.53;;;9.30;;
50355;SDS011;36264;51.296;-0.602;2022-12-10T00:31:07;18.17;;;8.30;;
50355;SDS011;36264;51.296;-0.602;2022-12-10T00:33:36;17.13;;;9.03;;
50355;SDS011;36264;51.296;-0.602;2022-12-10T00:36:03;26.20;;;11.03;;
50355;SDS011;36264;51.296;-0.602;2022-12-10T00:38:30;20.00;;;9.53;;
50355;SDS011;36264;51.296;-0.602;2022-12-10T00:40:56;23.77;;;9.83;;
50355;SDS011;36264;51.296;-0.602;2022-12-10T00:43:21;19.17;;;9.60;;
50355;SDS011;36264;51.296;-0.602;2022-12-10T00:45:47;22.60;;;9.43;;
50355;SDS011;36264;51.296;-0.602;2022-12-10T00:48:12;18.17;;;8.20;;
50355;SDS011;36264;51.296;-0.602;2022-12-10T00:50:37;21.27;;;9.57;;
50355;SDS011;36264;51.296;-0.602;2022-12-10T00:53:03;17.13;;;8.30;;
50355;SDS011;36264;51.296;-0.602;2022-12-10T00:55:28;21.73;;;9.43;;
50355;SDS011;36264;51.296;-0.602;2022-12-10T00:57:53;21.87;;;9.77;;
50355;SDS011;36264;51.296;-0.602;2022-12-10T01:00:19;26.60;;;9.17;;
50355;SDS011;36264;51.296;-0.602;2022-12-10T01:02:44;24.30;;;10.00;;
50355;SDS011;36264;51.296;-0.602;2022-12-10T01:05:09;21.53;;;9.90;;
50355;SDS011;36264;51.296;-0.602;2022-12-10T01:07:35;20.57;;;8.60;;
50355;SDS011;36264;51.296;-0.602;2022-12-10T01:10:00;19.83;;;9.03;;
50355;SDS011;36264;51.296;-0.602;2022-12-10T01:12:26;22.42;;;10.10;;
50355;SDS011;36264;51.296;-0.602;2022-12-10T01:14:52;17.87;;;8.20;;
50355;SDS011;36264;51.296;-0.602;2022-12-10T01:17:17;21.57;;;9.87;;
50355;SDS011;36264;51.296;-0.602;2022-12-10T01:19:45;20.50;;;8.87;;
50355;SDS011;36264;51.296;-0.602;2022-12-10T01:22:11;25.37;;;9.67;;
50355;SDS011;36264;51.296;-0.602;2022-12-10T01:24:36;20.80;;;8.17;;
50355;SDS011;36264;51.296;-0.602;2022-12-10T01:27:02;15.27;;;7.43;;
50355;SDS011;36264;51.296;-0.602;2022-12-10T01:29:27;22.70;;;8.53;;
50355;SDS011;36264;51.296;-0.602;2022-12-10T01:31:53;18.67;;;8.07;;
50355;SDS011;36264;51.296;-0.602;2022-12-10T01:34:20;19.67;;;9.37;;
50355;SDS011;36264;51.296;-0.602;2022-12-10T01:36:49;27.60;;;10.43;;
50355;SDS011;36264;51.296;-0.602;2022-12-10T01:39:16;20.90;;;9.33;;
50355;SDS011;36264;51.296;-0.602;2022-12-10T01:41:47;19.57;;;8.23;;
50355;SDS011;36264;51.296;-0.602;2022-12-10T01:46:46;25.77;;;11.00;;
50355;SDS011;36264;51.296;-0.602;2022-12-10T01:51:44;23.77;;;9.27;;
50355;SDS011;36264;51.296;-0.602;2022-12-10T01:54:45;27.97;;;8.83;;
50355;SDS011;36264;51.296;-0.602;2022-12-10T01:57:12;21.80;;;8.43;;
50355;SDS011;36264;51.296;-0.602;2022-12-10T01:59:41;21.67;;;9.13;;
50355;SDS011;36264;51.296;-0.602;2022-12-10T02:04:52;22.60;;;8.03;;
50355;SDS011;36264;51.296;-0.602;2022-12-10T02:07:51;19.03;;;8.50;;
50355;SDS011;36264;51.296;-0.602;2022-12-10T02:15:35;19.30;;;7.83;;
50355;SDS011;36264;51.296;-0.602;2022-12-10T02:18:09;18.20;;;6.67;;
50355;SDS011;36264;51.296;-0.602;2022-12-10T02:20:42;23.03;;;8.80;;
50355;SDS011;36264;51.296;-0.602;2022-12-10T02:23:32;16.00;;;7.93;;
50355;SDS011;36264;51.296;-0.602;2022-12-10T02:31:21;17.00;;;8.45;;
50355;SDS011;36264;51.296;-0.602;2022-12-10T02:33:51;21.95;;;8.50;;
50355;SDS011;36264;51.296;-0.602;2022-12-10T02:36:22;17.37;;;8.07;;
50355;SDS011;36264;51.296;-0.602;2022-12-10T02:38:50;16.67;;;7.90;;
50355;SDS011;36264;51.296;-0.602;2022-12-10T02:41:18;15.73;;;7.47;;
50355;SDS011;36264;51.296;-0.602;2022-12-10T02:43:49;16.85;;;7.15;;
50355;SDS011;36264;51.296;-0.602;2022-12-10T02:46:18;14.60;;;8.07;;
50355;SDS011;36264;51.296;-0.602;2022-12-10T02:48:45;18.63;;;7.70;;
50355;SDS011;36264;51.296;-0.602;2022-12-10T02:51:12;22.73;;;8.17;;
50355;SDS011;36264;51.296;-0.602;2022-12-10T02:53:41;18.93;;;8.63;;
50355;SDS011;36264;51.296;-0.602;2022-12-10T02:56:13;15.07;;;6.93;;
50355;SDS011;36264;51.296;-0.602;2022-12-10T02:58:54;16.70;;;7.50;;
50355;SDS011;36264;51.296;-0.602;2022-12-10T03:01:29;18.97;;;7.73;;
50355;SDS011;36264;51.296;-0.602;2022-12-10T03:04:06;13.60;;;6.50;;
50355;SDS011;36264;51.296;-0.602;2022-12-10T03:06:45;16.63;;;7.07;;
50355;SDS011;36264;51.296;-0.602;2022-12-10T03:09:19;17.97;;;7.70;;
50355;SDS011;36264;51.296;-0.602;2022-12-10T03:11:49;15.90;;;7.00;;
50355;SDS011;36264;51.296;-0.602;2022-12-10T03:14:24;17.70;;;7.57;;
50355;SDS011;36264;51.296;-0.602;2022-12-10T03:16:57;15.40;;;7.93;;
50355;SDS011;36264;51.296;-0.602;2022-12-10T03:19:32;15.10;;;6.20;;
50355;SDS011;36264;51.296;-0.602;2022-12-10T03:22:02;16.23;;;7.10;;
50355;SDS011;36264;51.296;-0.602;2022-12-10T03:24:28;17.50;;;8.23;;
50355;SDS011;36264;51.296;-0.602;2022-12-10T03:26:56;14.10;;;7.50;;
50355;SDS011;36264;51.296;-0.602;2022-12-10T03:29:24;17.30;;;7.57;;
50355;SDS011;36264;51.296;-0.602;2022-12-10T03:32:00;16.77;;;7.37;;
50355;SDS011;36264;51.296;-0.602;2022-12-10T03:34:27;18.00;;;7.87;;
50355;SDS011;36264;51.296;-0.602;2022-12-10T03:36:53;20.13;;;7.77;;
50355;SDS011;36264;51.296;-0.602;2022-12-10T03:39:18;20.73;;;8.57;;
50355;SDS011;36264;51.296;-0.602;2022-12-10T03:41:44;18.07;;;7.47;;
50355;SDS011;36264;51.296;-0.602;2022-12-10T03:44:10;16.43;;;7.20;;
50355;SDS011;36264;51.296;-0.602;2022-12-10T03:46:35;17.63;;;8.13;;
50355;SDS011;36264;51.296;-0.602;2022-12-10T03:49:01;12.93;;;6.53;;
50355;SDS011;36264;51.296;-0.602;2022-12-10T03:51:27;16.57;;;7.50;;
50355;SDS011;36264;51.296;-0.602;2022-12-10T03:53:53;17.23;;;8.40;;
50355;SDS011;36264;51.296;-0.602;2022-12-10T03:56:19;16.73;;;6.97;;
50355;SDS011;36264;51.296;-0.602;2022-12-10T03:58:44;13.47;;;7.20;;
50355;SDS011;36264;51.296;-0.602;2022-12-10T04:01:10;15.20;;;7.47;;
50355;SDS011;36264;51.296;-0.602;2022-12-10T04:03:36;12.13;;;6.67;;
50355;SDS011;36264;51.296;-0.602;2022-12-10T04:06:07;13.40;;;6.70;;
50355;SDS011;36264;51.296;-0.602;2022-12-10T04:08:34;20.30;;;7.63;;
50355;SDS011;36264;51.296;-0.602;2022-12-10T04:11:03;15.63;;;6.87;;
50355;SDS011;36264;51.296;-0.602;2022-12-10T04:13:33;13.77;;;6.47;;
50355;SDS011;36264;51.296;-0.602;2022-12-10T04:16:18;21.00;;;7.77;;
50355;SDS011;36264;51.296;-0.602;2022-12-10T04:18:54;11.30;;;5.80;;
50355;SDS011;36264;51.296;-0.602;2022-12-10T04:21:20;17.67;;;7.60;;
50355;SDS011;36264;51.296;-0.602;2022-12-10T04:24:05;21.17;;;8.87;;
50355;SDS011;36264;51.296;-0.602;2022-12-10T04:26:50;14.60;;;7.40;;
50355;SDS011;36264;51.296;-0.602;2022-12-10T04:29:20;15.33;;;7.00;;
50355;SDS011;36264;51.296;-0.602;2022-12-10T04:31:49;14.47;;;7.30;;
50355;SDS011;36264;51.296;-0.602;2022-12-10T04:34:15;15.67;;;7.60;;
50355;SDS011;36264;51.296;-0.602;2022-12-10T04:36:41;18.00;;;8.40;;
50355;SDS011;36264;51.296;-0.602;2022-12-10T04:39:06;19.00;;;7.70;;
50355;SDS011;36264;51.296;-0.602;2022-12-10T04:41:32;16.93;;;8.27;;
50355;SDS011;36264;51.296;-0.602;2022-12-10T04:43:57;12.43;;;6.53;;
50355;SDS011;36264;51.296;-0.602;2022-12-10T04:46:22;16.27;;;6.87;;
50355;SDS011;36264;51.296;-0.602;2022-12-10T04:48:48;14.23;;;7.23;;
50355;SDS011;36264;51.296;-0.602;2022-12-10T04:51:13;11.70;;;5.80;;
50355;SDS011;36264;51.296;-0.602;2022-12-10T04:53:38;13.27;;;7.00;;
50355;SDS011;36264;51.296;-0.602;2022-12-10T04:56:04;16.37;;;7.07;;
50355;SDS011;36264;51.296;-0.602;2022-12-10T04:58:30;14.23;;;6.73;;
50355;SDS011;36264;51.296;-0.602;2022-12-10T05:01:03;16.23;;;6.67;;
50355;SDS011;36264;51.296;-0.602;2022-12-10T05:03:30;12.40;;;6.83;;
50355;SDS011;36264;51.296;-0.602;2022-12-10T05:06:00;14.80;;;6.70;;
50355;SDS011;36264;51.296;-0.602;2022-12-10T05:08:27;13.90;;;7.13;;
50355;SDS011;36264;51.296;-0.602;2022-12-10T05:10:52;14.60;;;6.80;;
50355;SDS011;36264;51.296;-0.602;2022-12-10T05:13:17;15.53;;;6.83;;
50355;SDS011;36264;51.296;-0.602;2022-12-10T05:15:43;13.07;;;7.53;;
50355;SDS011;36264;51.296;-0.602;2022-12-10T05:18:08;12.70;;;6.37;;
50355;SDS011;36264;51.296;-0.602;2022-12-10T05:20:33;12.17;;;6.23;;
50355;SDS011;36264;51.296;-0.602;2022-12-10T05:22:59;16.40;;;7.43;;
50355;SDS011;36264;51.296;-0.602;2022-12-10T05:25:42;10.37;;;6.13;;
50355;SDS011;36264;51.296;-0.602;2022-12-10T05:28:29;11.47;;;6.00;;
50355;SDS011;36264;51.296;-0.602;2022-12-10T05:30:55;16.10;;;7.10;;
50355;SDS011;36264;51.296;-0.602;2022-12-10T05:33:21;11.13;;;5.43;;
50355;SDS011;36264;51.296;-0.602;2022-12-10T05:38:19;13.90;;;6.93;;
50355;SDS011;36264;51.296;-0.602;2022-12-10T05:40:45;15.17;;;7.03;;
50355;SDS011;36264;51.296;-0.602;2022-12-10T05:43:10;12.47;;;6.20;;
50355;SDS011;36264;51.296;-0.602;2022-12-10T05:45:36;16.27;;;7.30;;
50355;SDS011;36264;51.296;-0.602;2022-12-10T05:48:01;13.53;;;6.80;;
50355;SDS011;36264;51.296;-0.602;2022-12-10T05:50:27;13.97;;;7.37;;
50355;SDS011;36264;51.296;-0.602;2022-12-10T05:52:52;13.17;;;6.57;;
50355;SDS011;36264;51.296;-0.602;2022-12-10T05:55:18;16.63;;;7.30;;
50355;SDS011;36264;51.296;-0.602;2022-12-10T05:57:43;13.20;;;6.13;;
50355;SDS011;36264;51.296;-0.602;2022-12-10T06:00:08;12.20;;;6.47;;
50355;SDS011;36264;51.296;-0.602;2022-12-10T06:02:35;11.93;;;6.80;;
50355;SDS011;36264;51.296;-0.602;2022-12-10T06:05:00;15.70;;;6.70;;
50355;SDS011;36264;51.296;-0.602;2022-12-10T06:07:26;20.73;;;7.60;;
50355;SDS011;36264;51.296;-0.602;2022-12-10T06:09:51;13.27;;;6.60;;
50355;SDS011;36264;51.296;-0.602;2022-12-10T06:12:16;12.43;;;6.80;;
50355;SDS011;36264;51.296;-0.602;2022-12-10T06:14:42;12.73;;;6.73;;
50355;SDS011;36264;51.296;-0.602;2022-12-10T06:17:07;15.90;;;6.87;;
50355;SDS011;36264;51.296;-0.602;2022-12-10T06:19:33;12.30;;;6.70;;
50355;SDS011;36264;51.296;-0.602;2022-12-10T06:21:58;12.97;;;7.00;;
50355;SDS011;36264;51.296;-0.602;2022-12-10T06:24:24;14.03;;;6.50;;
50355;SDS011;36264;51.296;-0.602;2022-12-10T06:26:49;12.53;;;5.70;;
50355;SDS011;36264;51.296;-0.602;2022-12-10T06:29:16;13.00;;;6.13;;
50355;SDS011;36264;51.296;-0.602;2022-12-10T06:31:41;13.60;;;6.37;;
50355;SDS011;36264;51.296;-0.602;2022-12-10T06:34:07;16.40;;;7.67;;
50355;SDS011;36264;51.296;-0.602;2022-12-10T06:36:32;10.77;;;6.03;;
50355;SDS011;36264;51.296;-0.602;2022-12-10T06:38:57;18.63;;;7.73;;
50355;SDS011;36264;51.296;-0.602;2022-12-10T06:41:23;12.97;;;6.43;;
50355;SDS011;36264;51.296;-0.602;2022-12-10T06:43:48;14.70;;;6.63;;
50355;SDS011;36264;51.296;-0.602;2022-12-10T06:46:15;14.17;;;7.17;;
50355;SDS011;36264;51.296;-0.602;2022-12-10T06:48:42;15.70;;;7.63;;
50355;SDS011;36264;51.296;-0.602;2022-12-10T06:51:08;15.37;;;7.73;;
50355;SDS011;36264;51.296;-0.602;2022-12-10T06:53:35;14.80;;;6.90;;
50355;SDS011;36264;51.296;-0.602;2022-12-10T06:56:02;12.73;;;7.03;;
50355;SDS011;36264;51.296;-0.602;2022-12-10T06:58:29;14.33;;;7.40;;
50355;SDS011;36264;51.296;-0.602;2022-12-10T07:01:01;15.17;;;7.67;;
50355;SDS011;36264;51.296;-0.602;2022-12-10T07:03:31;14.53;;;6.97;;
50355;SDS011;36264;51.296;-0.602;2022-12-10T07:05:57;15.03;;;6.50;;
50355;SDS011;36264;51.296;-0.602;2022-12-10T07:08:23;12.70;;;6.93;;
50355;SDS011;36264;51.296;-0.602;2022-12-10T07:10:49;17.17;;;7.57;;
50355;SDS011;36264;51.296;-0.602;2022-12-10T07:13:14;14.63;;;6.23;;
50355;SDS011;36264;51.296;-0.602;2022-12-10T07:15:39;10.90;;;6.00;;
50355;SDS011;36264;51.296;-0.602;2022-12-10T07:18:05;14.67;;;6.90;;
50355;SDS011;36264;51.296;-0.602;2022-12-10T07:20:30;13.40;;;6.50;;
50355;SDS011;36264;51.296;-0.602;2022-12-10T07:22:55;15.33;;;7.37;;
50355;SDS011;36264;51.296;-0.602;2022-12-10T07:25:20;12.53;;;6.37;;
50355;SDS011;36264;51.296;-0.602;2022-12-10T07:27:46;12.27;;;6.83;;
50355;SDS011;36264;51.296;-0.602;2022-12-10T07:30:11;13.47;;;6.67;;
50355;SDS011;36264;51.296;-0.602;2022-12-10T07:32:37;10.67;;;6.27;;
50355;SDS011;36264;51.296;-0.602;2022-12-10T07:35:02;12.13;;;5.90;;
50355;SDS011;36264;51.296;-0.602;2022-12-10T07:37:28;13.23;;;6.93;;
50355;SDS011;36264;51.296;-0.602;2022-12-10T07:39:53;12.43;;;7.10;;
50355;SDS011;36264;51.296;-0.602;2022-12-10T07:42:19;13.67;;;6.63;;
50355;SDS011;36264;51.296;-0.602;2022-12-10T07:44:44;12.03;;;6.27;;
50355;SDS011;36264;51.296;-0.602;2022-12-10T07:47:09;12.10;;;6.97;;
50355;SDS011;36264;51.296;-0.602;2022-12-10T07:49:35;12.30;;;5.77;;
50355;SDS011;36264;51.296;-0.602;2022-12-10T07:52:00;14.60;;;6.80;;
50355;SDS011;36264;51.296;-0.602;2022-12-10T07:54:25;13.43;;;7.47;;
50355;SDS011;36264;51.296;-0.602;2022-12-10T07:56:51;14.03;;;6.93;;
50355;SDS011;36264;51.296;-0.602;2022-12-10T07:59:16;15.50;;;6.77;;
50355;SDS011;36264;51.296;-0.602;2022-12-10T08:01:42;13.33;;;6.53;;
50355;SDS011;36264;51.296;-0.602;2022-12-10T08:04:07;14.70;;;7.17;;
50355;SDS011;36264;51.296;-0.602;2022-12-10T08:06:33;17.27;;;7.63;;
50355;SDS011;36264;51.296;-0.602;2022-12-10T08:08:58;14.33;;;6.77;;
50355;SDS011;36264;51.296;-0.602;2022-12-10T08:11:24;16.13;;;7.10;;
50355;SDS011;36264;51.296;-0.602;2022-12-10T08:13:51;13.67;;;6.57;;
50355;SDS011;36264;51.296;-0.602;2022-12-10T08:16:18;14.80;;;7.27;;
50355;SDS011;36264;51.296;-0.602;2022-12-10T08:18:47;17.58;;;8.18;;
50355;SDS011;36264;51.296;-0.602;2022-12-10T08:21:14;17.50;;;8.40;;
50355;SDS011;36264;51.296;-0.602;2022-12-10T08:23:42;12.20;;;5.80;;
50355;SDS011;36264;51.296;-0.602;2022-12-10T08:26:09;10.07;;;5.83;;
50355;SDS011;36264;51.296;-0.602;2022-12-10T08:28:37;15.20;;;6.63;;
50355;SDS011;36264;51.296;-0.602;2022-12-10T08:31:03;16.50;;;6.57;;
50355;SDS011;36264;51.296;-0.602;2022-12-10T08:33:29;14.17;;;6.13;;
50355;SDS011;36264;51.296;-0.602;2022-12-10T08:36:00;21.67;;;7.47;;
50355;SDS011;36264;51.296;-0.602;2022-12-10T08:38:26;17.00;;;7.63;;
50355;SDS011;36264;51.296;-0.602;2022-12-10T08:40:52;14.23;;;7.00;;
50355;SDS011;36264;51.296;-0.602;2022-12-10T08:43:18;15.07;;;6.63;;
50355;SDS011;36264;51.296;-0.602;2022-12-10T08:45:44;13.97;;;6.97;;
50355;SDS011;36264;51.296;-0.602;2022-12-10T08:48:09;12.53;;;5.90;;
50355;SDS011;36264;51.296;-0.602;2022-12-10T08:50:36;15.47;;;7.10;;
50355;SDS011;36264;51.296;-0.602;2022-12-10T08:53:02;12.13;;;6.23;;
50355;SDS011;36264;51.296;-0.602;2022-12-10T08:55:27;16.23;;;6.83;;
50355;SDS011;36264;51.296;-0.602;2022-12-10T08:57:53;15.63;;;6.70;;
50355;SDS011;36264;51.296;-0.602;2022-12-10T09:00:18;13.17;;;6.83;;
50355;SDS011;36264;51.296;-0.602;2022-12-10T09:02:44;13.13;;;6.37;;
50355;SDS011;36264;51.296;-0.602;2022-12-10T09:05:10;13.10;;;6.50;;
50355;SDS011;36264;51.296;-0.602;2022-12-10T09:07:36;15.33;;;7.13;;
50355;SDS011;36264;51.296;-0.602;2022-12-10T09:10:01;12.33;;;7.13;;
50355;SDS011;36264;51.296;-0.602;2022-12-10T09:12:27;12.43;;;6.40;;
50355;SDS011;36264;51.296;-0.602;2022-12-10T09:14:52;17.77;;;8.23;;
50355;SDS011;36264;51.296;-0.602;2022-12-10T09:17:18;16.77;;;7.50;;
50355;SDS011;36264;51.296;-0.602;2022-12-10T09:19:44;10.03;;;5.67;;
50355;SDS011;36264;51.296;-0.602;2022-12-10T09:22:09;14.33;;;6.77;;
50355;SDS011;36264;51.296;-0.602;2022-12-10T09:24:34;11.53;;;6.07;;
50355;SDS011;36264;51.296;-0.602;2022-12-10T09:27:00;10.23;;;5.77;;
50355;SDS011;36264;51.296;-0.602;2022-12-10T09:29:27;13.87;;;6.53;;
50355;SDS011;36264;51.296;-0.602;2022-12-10T09:31:53;8.60;;;4.97;;
50355;SDS011;36264;51.296;-0.602;2022-12-10T09:34:18;12.10;;;5.80;;
50355;SDS011;36264;51.296;-0.602;2022-12-10T09:36:44;10.23;;;5.70;;
50355;SDS011;36264;51.296;-0.602;2022-12-10T09:39:10;13.97;;;7.23;;
50355;SDS011;36264;51.296;-0.602;2022-12-10T09:41:43;17.03;;;7.80;;
50355;SDS011;36264;51.296;-0.602;2022-12-10T09:44:23;18.30;;;7.57;;
50355;SDS011;36264;51.296;-0.602;2022-12-10T09:51:59;13.93;;;6.82;;
50355;SDS011;36264;51.296;-0.602;2022-12-10T09:54:35;11.30;;;5.80;;
50355;SDS011;36264;51.296;-0.602;2022-12-10T09:57:06;11.43;;;5.87;;
50355;SDS011;36264;51.296;-0.602;2022-12-10T09:59:42;10.80;;;5.68;;
50355;SDS011;36264;51.296;-0.602;2022-12-10T10:02:28;10.87;;;5.30;;
50355;SDS011;36264;51.296;-0.602;2022-12-10T10:07:33;14.82;;;5.97;;
50355;SDS011;36264;51.296;-0.602;2022-12-10T10:10:06;15.00;;;7.40;;
50355;SDS011;36264;51.296;-0.602;2022-12-10T10:12:42;11.65;;;5.15;;
50355;SDS011;36264;51.296;-0.602;2022-12-10T10:15:15;13.80;;;6.20;;
50355;SDS011;36264;51.296;-0.602;2022-12-10T10:17:43;11.90;;;5.88;;
50355;SDS011;36264;51.296;-0.602;2022-12-10T10:20:12;12.30;;;6.32;;
50355;SDS011;36264;51.296;-0.602;2022-12-10T10:22:39;8.55;;;5.25;;
50355;SDS011;36264;51.296;-0.602;2022-12-10T10:25:05;11.80;;;5.80;;
50355;SDS011;36264;51.296;-0.602;2022-12-10T10:27:37;15.38;;;7.00;;
50355;SDS011;36264;51.296;-0.602;2022-12-10T10:30:03;11.45;;;5.85;;
50355;SDS011;36264;51.296;-0.602;2022-12-10T10:39:54;10.10;;;5.18;;
50355;SDS011;36264;51.296;-0.602;2022-12-10T10:45:03;12.70;;;5.95;;
50355;SDS011;36264;51.296;-0.602;2022-12-10T10:47:32;14.10;;;6.63;;
50355;SDS011;36264;51.296;-0.602;2022-12-10T10:50:02;12.77;;;6.00;;
50355;SDS011;36264;51.296;-0.602;2022-12-10T10:52:30;10.90;;;6.05;;
50355;SDS011;36264;51.296;-0.602;2022-12-10T10:55:01;14.48;;;6.93;;
50355;SDS011;36264;51.296;-0.602;2022-12-10T10:57:27;9.82;;;5.63;;
50355;SDS011;36264;51.296;-0.602;2022-12-10T11:00:05;12.48;;;6.78;;
50355;SDS011;36264;51.296;-0.602;2022-12-10T11:02:42;10.82;;;5.82;;
50355;SDS011;36264;51.296;-0.602;2022-12-10T11:07:47;14.93;;;6.38;;
50355;SDS011;36264;51.296;-0.602;2022-12-10T11:10:19;11.07;;;6.13;;
50355;SDS011;36264;51.296;-0.602;2022-12-10T11:12:55;10.30;;;5.55;;
50355;SDS011;36264;51.296;-0.602;2022-12-10T11:17:58;9.68;;;5.30;;
50355;SDS011;36264;51.296;-0.602;2022-12-10T11:20:25;8.45;;;4.90;;
50355;SDS011;36264;51.296;-0.602;2022-12-10T11:22:54;10.77;;;5.68;;
50355;SDS011;36264;51.296;-0.602;2022-12-10T11:25:29;10.55;;;4.70;;
50355;SDS011;36264;51.296;-0.602;2022-12-10T11:41:54;8.93;;;4.45;;
50355;SDS011;36264;51.296;-0.602;2022-12-10T11:45:08;7.95;;;3.95;;
50355;SDS011;36264;51.296;-0.602;2022-12-10T11:50:41;7.03;;;3.72;;
50355;SDS011;36264;51.296;-0.602;2022-12-10T11:56:08;7.35;;;3.60;;
50355;SDS011;36264;51.296;-0.602;2022-12-10T12:03:55;6.95;;;3.72;;
50355;SDS011;36264;51.296;-0.602;2022-12-10T12:06:45;7.00;;;3.80;;
50355;SDS011;36264;51.296;-0.602;2022-12-10T12:12:11;6.38;;;3.45;;
50355;SDS011;36264;51.296;-0.602;2022-12-10T12:14:41;6.95;;;3.85;;
50355;SDS011;36264;51.296;-0.602;2022-12-10T12:17:21;9.00;;;4.45;;
50355;SDS011;36264;51.296;-0.602;2022-12-10T12:22:26;6.95;;;3.53;;
50355;SDS011;36264;51.296;-0.602;2022-12-10T12:24:59;8.60;;;3.88;;
50355;SDS011;36264;51.296;-0.602;2022-12-10T12:35:03;4.70;;;2.78;;
50355;SDS011;36264;51.296;-0.602;2022-12-10T12:40:51;4.75;;;2.83;;
50355;SDS011;36264;51.296;-0.602;2022-12-10T12:43:46;5.75;;;3.03;;
50355;SDS011;36264;51.296;-0.602;2022-12-10T12:46:24;6.38;;;3.10;;
50355;SDS011;36264;51.296;-0.602;2022-12-10T12:48:59;5.30;;;2.88;;
50355;SDS011;36264;51.296;-0.602;2022-12-10T12:51:49;5.07;;;2.60;;
50355;SDS011;36264;51.296;-0.602;2022-12-10T12:54:24;5.60;;;2.65;;
50355;SDS011;36264;51.296;-0.602;2022-12-10T13:04:56;5.03;;;2.63;;
50355;SDS011;36264;51.296;-0.602;2022-12-10T13:09:48;4.32;;;2.38;;
50355;SDS011;36264;51.296;-0.602;2022-12-10T13:17:25;4.57;;;2.67;;
50355;SDS011;36264;51.296;-0.602;2022-12-10T13:22:58;4.20;;;2.00;;
50355;SDS011;36264;51.296;-0.602;2022-12-10T13:26:17;5.28;;;2.70;;
50355;SDS011;36264;51.296;-0.602;2022-12-10T13:34:03;5.00;;;2.58;;
50355;SDS011;36264;51.296;-0.602;2022-12-10T13:41:40;5.72;;;2.20;;
50355;SDS011;36264;51.296;-0.602;2022-12-10T13:44:37;6.65;;;2.20;;
50355;SDS011;36264;51.296;-0.602;2022-12-10T13:50:01;3.13;;;1.67;;
50355;SDS011;36264;51.296;-0.602;2022-12-10T13:52:44;2.90;;;1.50;;
50355;SDS011;36264;51.296;-0.602;2022-12-10T14:01:11;4.78;;;2.13;;
50355;SDS011;36264;51.296;-0.602;2022-12-10T14:06:44;5.82;;;2.65;;
50355;SDS011;36264;51.296;-0.602;2022-12-10T14:12:37;5.38;;;2.67;;
50355;SDS011;36264;51.296;-0.602;2022-12-10T14:15:05;6.32;;;2.90;;
50355;SDS011;36264;51.296;-0.602;2022-12-10T14:17:40;4.25;;;2.20;;
50355;SDS011;36264;51.296;-0.602;2022-12-10T14:20:07;5.90;;;2.92;;
50355;SDS011;36264;51.296;-0.602;2022-12-10T14:22:49;4.05;;;2.33;;
50355;SDS011;36264;51.296;-0.602;2022-12-10T14:25:20;6.80;;;3.75;;
50355;SDS011;36264;51.296;-0.602;2022-12-10T14:27:50;6.68;;;3.50;;
50355;SDS011;36264;51.296;-0.602;2022-12-10T14:30:21;4.77;;;2.77;;
50355;SDS011;36264;51.296;-0.602;2022-12-10T14:35:16;6.05;;;2.95;;
50355;SDS011;36264;51.296;-0.602;2022-12-10T14:37:46;4.03;;;2.20;;
50355;SDS011;36264;51.296;-0.602;2022-12-10T14:40:21;4.97;;;2.50;;
50355;SDS011;36264;51.296;-0.602;2022-12-10T14:42:47;4.53;;;2.35;;
50355;SDS011;36264;51.296;-0.602;2022-12-10T14:45:14;4.10;;;2.20;;
50355;SDS011;36264;51.296;-0.602;2022-12-10T14:47:40;5.20;;;2.47;;
50355;SDS011;36264;51.296;-0.602;2022-12-10T14:50:09;4.78;;;2.30;;
50355;SDS011;36264;51.296;-0.602;2022-12-10T14:52:49;3.75;;;1.58;;
50355;SDS011;36264;51.296;-0.602;2022-12-10T14:55:18;3.72;;;2.10;;
50355;SDS011;36264;51.296;-0.602;2022-12-10T14:58:23;4.43;;;2.08;;
50355;SDS011;36264;51.296;-0.602;2022-12-10T15:00:47;6.90;;;2.90;;
50355;SDS011;36264;51.296;-0.602;2022-12-10T15:03:16;4.10;;;1.88;;
50355;SDS011;36264;51.296;-0.602;2022-12-10T15:05:59;4.43;;;2.10;;
50355;SDS011;36264;51.296;-0.602;2022-12-10T15:08:28;3.40;;;1.85;;
50355;SDS011;36264;51.296;-0.602;2022-12-10T15:10:55;3.55;;;1.77;;
50355;SDS011;36264;51.296;-0.602;2022-12-10T15:15:54;3.53;;;1.73;;
50355;SDS011;36264;51.296;-0.602;2022-12-10T15:18:20;3.25;;;1.70;;
50355;SDS011;36264;51.296;-0.602;2022-12-10T15:20:53;4.75;;;1.80;;
50355;SDS011;36264;51.296;-0.602;2022-12-10T15:28:31;4.53;;;2.00;;
50355;SDS011;36264;51.296;-0.602;2022-12-10T15:31:11;3.60;;;2.17;;
50355;SDS011;36264;51.296;-0.602;2022-12-10T15:33:53;4.63;;;1.73;;
50355;SDS011;36264;51.296;-0.602;2022-12-10T15:44:05;2.42;;;1.45;;
50355;SDS011;36264;51.296;-0.602;2022-12-10T15:46:51;3.00;;;1.63;;
50355;SDS011;36264;51.296;-0.602;2022-12-10T15:49:23;2.67;;;1.40;;
50355;SDS011;36264;51.296;-0.602;2022-12-10T15:51:48;2.78;;;1.50;;
50355;SDS011;36264;51.296;-0.602;2022-12-10T15:56:54;3.47;;;1.90;;
50355;SDS011;36264;51.296;-0.602;2022-12-10T15:59:20;4.18;;;1.80;;
50355;SDS011;36264;51.296;-0.602;2022-12-10T16:01:45;5.28;;;1.90;;
50355;SDS011;36264;51.296;-0.602;2022-12-10T16:04:11;4.18;;;1.92;;
50355;SDS011;36264;51.296;-0.602;2022-12-10T16:06:36;8.18;;;2.45;;
50355;SDS011;36264;51.296;-0.602;2022-12-10T16:09:02;3.85;;;1.83;;
50355;SDS011;36264;51.296;-0.602;2022-12-10T16:11:28;5.43;;;2.22;;
50355;SDS011;36264;51.296;-0.602;2022-12-10T16:13:54;5.85;;;2.55;;
50355;SDS011;36264;51.296;-0.602;2022-12-10T16:16:22;4.57;;;2.10;;
50355;SDS011;36264;51.296;-0.602;2022-12-10T16:18:48;6.22;;;2.63;;
50355;SDS011;36264;51.296;-0.602;2022-12-10T16:21:14;5.57;;;3.03;;
50355;SDS011;36264;51.296;-0.602;2022-12-10T16:23:39;7.28;;;3.05;;
50355;SDS011;36264;51.296;-0.602;2022-12-10T16:26:09;10.05;;;3.65;;
50355;SDS011;36264;51.296;-0.602;2022-12-10T16:28:42;9.48;;;3.30;;
50355;SDS011;36264;51.296;-0.602;2022-12-10T16:31:10;9.65;;;3.45;;
50355;SDS011;36264;51.296;-0.602;2022-12-10T16:33:36;7.70;;;2.97;;
50355;SDS011;36264;51.296;-0.602;2022-12-10T16:36:02;7.15;;;2.88;;
50355;SDS011;36264;51.296;-0.602;2022-12-10T16:38:27;11.15;;;3.42;;
50355;SDS011;36264;51.296;-0.602;2022-12-10T16:40:53;14.18;;;4.43;;
50355;SDS011;36264;51.296;-0.602;2022-12-10T16:43:22;9.18;;;3.30;;
50355;SDS011;36264;51.296;-0.602;2022-12-10T16:45:51;8.27;;;3.72;;
50355;SDS011;36264;51.296;-0.602;2022-12-10T16:48:17;10.48;;;3.53;;
50355;SDS011;36264;51.296;-0.602;2022-12-10T16:50:44;7.55;;;3.80;;
50355;SDS011;36264;51.296;-0.602;2022-12-10T16:55:43;12.80;;;4.90;;
50355;SDS011;36264;51.296;-0.602;2022-12-10T16:58:12;10.13;;;3.95;;
50355;SDS011;36264;51.296;-0.602;2022-12-10T17:00:42;13.27;;;4.95;;
50355;SDS011;36264;51.296;-0.602;2022-12-10T17:03:10;13.35;;;4.95;;
50355;SDS011;36264;51.296;-0.602;2022-12-10T17:05:58;13.77;;;4.85;;
50355;SDS011;36264;51.296;-0.602;2022-12-10T17:08:26;12.90;;;5.03;;